<?xml version='1.0' encoding='UTF-8'?><gpx version="1.1" creator="JPX - https://github.com/jenetics/jpx" xmlns="http://www.topografix.com/GPX/1/1"><trk><trkseg><trkpt lat="43.811785" lon="10.410465"><ele>9.000000000000002</ele><time>2026-04-05T15:37:53.987Z</time></trkpt><trkpt lat="43.8117167" lon="10.4104433"><ele>9.0</ele><time>2026-04-05T15:37:59.986Z</time></trkpt><trkpt lat="43.81165" lon="10.41042"><ele>9.0</ele><time>2026-04-05T15:38:07.991Z</time></trkpt><trkpt lat="43.8115917" lon="10.4103717"><ele>9.0</ele><time>2026-04-05T15:38:14.987Z</time></trkpt><trkpt lat="43.8115467" lon="10.4103067"><ele>9.0</ele><time>2026-04-05T15:38:25.988Z</time></trkpt><trkpt lat="43.8114867" lon="10.410255"><ele>9.000000000000002</ele><time>2026-04-05T15:38:33.987Z</time></trkpt><trkpt lat="43.8114333" lon="10.4102067"><ele>9.0</ele><time>2026-04-05T15:38:39.988Z</time></trkpt><trkpt lat="43.8113783" lon="10.41016"><ele>9.0</ele><time>2026-04-05T15:38:52.998Z</time></trkpt><trkpt lat="43.8113176" lon="10.4101137"><ele>9.0</ele><time>2026-04-05T15:39:03.998Z</time></trkpt><trkpt lat="43.8112557" lon="10.410064"><ele>9.0</ele><time>2026-04-05T15:39:12.001Z</time></trkpt><trkpt lat="43.8111455" lon="10.4100134"><ele>9.0</ele><time>2026-04-05T15:39:33.997Z</time></trkpt><trkpt lat="43.8110827" lon="10.4099671"><ele>9.0</ele><time>2026-04-05T15:39:43.004Z</time></trkpt><trkpt lat="43.8110215" lon="10.4099265"><ele>9.0</ele><time>2026-04-05T15:39:51.004Z</time></trkpt><trkpt lat="43.81097" lon="10.4098751"><ele>8.857142857142858</ele><time>2026-04-05T15:39:58.001Z</time></trkpt><trkpt lat="43.8109031" lon="10.4098369"><ele>8.714285714285715</ele><time>2026-04-05T15:40:05.99Z</time></trkpt><trkpt lat="43.810844" lon="10.4098066"><ele>8.571428571428571</ele><time>2026-04-05T15:40:14.002Z</time></trkpt><trkpt lat="43.8107887" lon="10.4097573"><ele>8.428571428571429</ele><time>2026-04-05T15:40:21.003Z</time></trkpt><trkpt lat="43.8107332" lon="10.4097119"><ele>8.285714285714285</ele><time>2026-04-05T15:40:30.001Z</time></trkpt><trkpt lat="43.810674" lon="10.4096736"><ele>8.142857142857142</ele><time>2026-04-05T15:40:37.997Z</time></trkpt><trkpt lat="43.8106088" lon="10.4096515"><ele>8.0</ele><time>2026-04-05T15:40:51.989Z</time></trkpt><trkpt lat="43.8105527" lon="10.4095978"><ele>8.0</ele><time>2026-04-05T15:41:00.997Z</time></trkpt><trkpt lat="43.8104891" lon="10.4095589"><ele>7.999999999999999</ele><time>2026-04-05T15:41:07.995Z</time></trkpt><trkpt lat="43.8104321" lon="10.4095109"><ele>8.0</ele><time>2026-04-05T15:41:14.995Z</time></trkpt><trkpt lat="43.8103678" lon="10.4094773"><ele>8.0</ele><time>2026-04-05T15:41:21.998Z</time></trkpt><trkpt lat="43.8103114" lon="10.4094193"><ele>7.999999999999999</ele><time>2026-04-05T15:41:29.999Z</time></trkpt><trkpt lat="43.8102538" lon="10.40938"><ele>8.0</ele><time>2026-04-05T15:41:37.999Z</time></trkpt><trkpt lat="43.8101885" lon="10.4093408"><ele>8.0</ele><time>2026-04-05T15:41:49.002Z</time></trkpt><trkpt lat="43.8101325" lon="10.4092913"><ele>8.0</ele><time>2026-04-05T15:41:54.99Z</time></trkpt><trkpt lat="43.8100738" lon="10.4092541"><ele>7.999999999999999</ele><time>2026-04-05T15:42:04.999Z</time></trkpt><trkpt lat="43.8100184" lon="10.4091993"><ele>8.0</ele><time>2026-04-05T15:42:11.999Z</time></trkpt><trkpt lat="43.809962" lon="10.409142"><ele>8.0</ele><time>2026-04-05T15:42:19.001Z</time></trkpt><trkpt lat="43.8098973" lon="10.4091129"><ele>7.999999999999999</ele><time>2026-04-05T15:42:27.995Z</time></trkpt><trkpt lat="43.8098392" lon="10.4090647"><ele>8.0</ele><time>2026-04-05T15:42:35.999Z</time></trkpt><trkpt lat="43.8097765" lon="10.4090362"><ele>8.0</ele><time>2026-04-05T15:42:43.001Z</time></trkpt><trkpt lat="43.8097136" lon="10.4090031"><ele>7.999999999999999</ele><time>2026-04-05T15:42:50.999Z</time></trkpt><trkpt lat="43.8096493" lon="10.4089675"><ele>8.0</ele><time>2026-04-05T15:42:58.999Z</time></trkpt><trkpt lat="43.8095892" lon="10.408927"><ele>8.0</ele><time>2026-04-05T15:43:06Z</time></trkpt><trkpt lat="43.8095284" lon="10.4088694"><ele>8.0</ele><time>2026-04-05T15:43:13.002Z</time></trkpt><trkpt lat="43.8094639" lon="10.408832"><ele>7.999999999999999</ele><time>2026-04-05T15:43:20.997Z</time></trkpt><trkpt lat="43.8094239" lon="10.4087619"><ele>8.0</ele><time>2026-04-05T15:43:30Z</time></trkpt><trkpt lat="43.8093195" lon="10.408712"><ele>8.285714285714285</ele><time>2026-04-05T15:43:45.999Z</time></trkpt><trkpt lat="43.8092573" lon="10.4086756"><ele>8.571428571428571</ele><time>2026-04-05T15:43:54Z</time></trkpt><trkpt lat="43.8092034" lon="10.40863"><ele>8.857142857142858</ele><time>2026-04-05T15:44:01.99Z</time></trkpt><trkpt lat="43.8091418" lon="10.4085857"><ele>9.142857142857142</ele><time>2026-04-05T15:44:09.001Z</time></trkpt><trkpt lat="43.8090839" lon="10.4085428"><ele>9.428571428571429</ele><time>2026-04-05T15:44:14.986Z</time></trkpt><trkpt lat="43.8090227" lon="10.4085024"><ele>9.714285714285714</ele><time>2026-04-05T15:44:21.985Z</time></trkpt><trkpt lat="43.8089722" lon="10.4084458"><ele>10.0</ele><time>2026-04-05T15:44:28.985Z</time></trkpt><trkpt lat="43.808925" lon="10.4083874"><ele>10.0</ele><time>2026-04-05T15:44:33.984Z</time></trkpt><trkpt lat="43.8088546" lon="10.408355"><ele>10.0</ele><time>2026-04-05T15:44:39.985Z</time></trkpt><trkpt lat="43.8087969" lon="10.408303"><ele>10.0</ele><time>2026-04-05T15:44:45.984Z</time></trkpt><trkpt lat="43.8087355" lon="10.4082668"><ele>10.0</ele><time>2026-04-05T15:44:50.985Z</time></trkpt><trkpt lat="43.8086797" lon="10.4082132"><ele>10.0</ele><time>2026-04-05T15:44:59.986Z</time></trkpt><trkpt lat="43.8086177" lon="10.4081804"><ele>10.0</ele><time>2026-04-05T15:45:06.985Z</time></trkpt><trkpt lat="43.8085591" lon="10.4081312"><ele>10.0</ele><time>2026-04-05T15:45:14.986Z</time></trkpt><trkpt lat="43.8085006" lon="10.4080884"><ele>9.714285714285714</ele><time>2026-04-05T15:45:19.986Z</time></trkpt><trkpt lat="43.808436" lon="10.4080417"><ele>9.428571428571429</ele><time>2026-04-05T15:45:26.986Z</time></trkpt><trkpt lat="43.808377" lon="10.4080063"><ele>9.142857142857142</ele><time>2026-04-05T15:45:32.986Z</time></trkpt><trkpt lat="43.8083144" lon="10.407983"><ele>8.857142857142858</ele><time>2026-04-05T15:45:39.991Z</time></trkpt><trkpt lat="43.8083284" lon="10.4078907"><ele>8.571428571428571</ele><time>2026-04-05T15:46:21Z</time></trkpt><trkpt lat="43.8083207" lon="10.4078027"><ele>8.285714285714285</ele><time>2026-04-05T15:46:27.995Z</time></trkpt><trkpt lat="43.8083802" lon="10.4077422"><ele>8.0</ele><time>2026-04-05T15:46:33.999Z</time></trkpt><trkpt lat="43.8084361" lon="10.4076717"><ele>7.999999999999999</ele><time>2026-04-05T15:47:03.002Z</time></trkpt><trkpt lat="43.808406" lon="10.4075828"><ele>8.0</ele><time>2026-04-05T15:47:22.994Z</time></trkpt><trkpt lat="43.8083541" lon="10.4075171"><ele>8.0</ele><time>2026-04-05T15:47:29.988Z</time></trkpt><trkpt lat="43.8082989" lon="10.407461"><ele>8.0</ele><time>2026-04-05T15:47:38.986Z</time></trkpt><trkpt lat="43.8082532" lon="10.4073942"><ele>7.999999999999999</ele><time>2026-04-05T15:47:47.987Z</time></trkpt><trkpt lat="43.808185" lon="10.4073485"><ele>8.0</ele><time>2026-04-05T15:49:18.985Z</time></trkpt><trkpt lat="43.8081103" lon="10.4072389"><ele>8.0</ele><time>2026-04-05T15:50:08.988Z</time></trkpt><trkpt lat="43.8080538" lon="10.4071871"><ele>7.999999999999999</ele><time>2026-04-05T15:50:16.985Z</time></trkpt><trkpt lat="43.8079933" lon="10.4071309"><ele>8.0</ele><time>2026-04-05T15:50:23.988Z</time></trkpt><trkpt lat="43.8079452" lon="10.4070733"><ele>8.0</ele><time>2026-04-05T15:50:30.998Z</time></trkpt><trkpt lat="43.8078945" lon="10.4070147"><ele>7.999999999999999</ele><time>2026-04-05T15:50:37.995Z</time></trkpt><trkpt lat="43.8078508" lon="10.4069486"><ele>8.0</ele><time>2026-04-05T15:50:45.997Z</time></trkpt><trkpt lat="43.8078089" lon="10.406877"><ele>8.0</ele><time>2026-04-05T15:50:53.998Z</time></trkpt><trkpt lat="43.8077543" lon="10.4068285"><ele>8.0</ele><time>2026-04-05T15:51:01.001Z</time></trkpt><trkpt lat="43.8077088" lon="10.4067618"><ele>7.999999999999999</ele><time>2026-04-05T15:51:07.996Z</time></trkpt><trkpt lat="43.8076619" lon="10.4067022"><ele>8.0</ele><time>2026-04-05T15:51:15.002Z</time></trkpt><trkpt lat="43.807611" lon="10.4066414"><ele>8.0</ele><time>2026-04-05T15:51:21.996Z</time></trkpt><trkpt lat="43.8075611" lon="10.4065705"><ele>7.999999999999999</ele><time>2026-04-05T15:51:28Z</time></trkpt><trkpt lat="43.8075346" lon="10.406489"><ele>8.0</ele><time>2026-04-05T15:51:39.998Z</time></trkpt><trkpt lat="43.8075289" lon="10.406396"><ele>8.0</ele><time>2026-04-05T15:51:47.002Z</time></trkpt><trkpt lat="43.8075772" lon="10.4063239"><ele>8.0</ele><time>2026-04-05T15:51:59.999Z</time></trkpt><trkpt lat="43.8075102" lon="10.4063335"><ele>7.999999999999999</ele><time>2026-04-05T15:52:28.997Z</time></trkpt><trkpt lat="43.8074549" lon="10.4062896"><ele>8.0</ele><time>2026-04-05T15:52:35.996Z</time></trkpt><trkpt lat="43.8074142" lon="10.406217"><ele>8.0</ele><time>2026-04-05T15:52:43.002Z</time></trkpt><trkpt lat="43.8073653" lon="10.4061495"><ele>7.999999999999999</ele><time>2026-04-05T15:52:50.986Z</time></trkpt><trkpt lat="43.8073484" lon="10.4060585"><ele>8.0</ele><time>2026-04-05T15:52:56.986Z</time></trkpt><trkpt lat="43.8073078" lon="10.405991"><ele>8.0</ele><time>2026-04-05T15:53:05.987Z</time></trkpt><trkpt lat="43.8072457" lon="10.405957"><ele>8.0</ele><time>2026-04-05T15:53:24.987Z</time></trkpt><trkpt lat="43.8071925" lon="10.405879"><ele>7.999999999999999</ele><time>2026-04-05T15:53:37.996Z</time></trkpt><trkpt lat="43.8071408" lon="10.4058086"><ele>8.0</ele><time>2026-04-05T15:53:43Z</time></trkpt><trkpt lat="43.8070974" lon="10.4057332"><ele>8.0</ele><time>2026-04-05T15:53:50.997Z</time></trkpt><trkpt lat="43.8070479" lon="10.4056648"><ele>7.999999999999999</ele><time>2026-04-05T15:53:59.001Z</time></trkpt><trkpt lat="43.8070197" lon="10.4055833"><ele>8.0</ele><time>2026-04-05T15:54:07.001Z</time></trkpt><trkpt lat="43.8069781" lon="10.4054989"><ele>8.0</ele><time>2026-04-05T15:54:13.998Z</time></trkpt><trkpt lat="43.8069331" lon="10.4054313"><ele>8.0</ele><time>2026-04-05T15:54:21.002Z</time></trkpt><trkpt lat="43.806899" lon="10.4053556"><ele>7.999999999999999</ele><time>2026-04-05T15:54:31.991Z</time></trkpt><trkpt lat="43.8068521" lon="10.4052831"><ele>8.0</ele><time>2026-04-05T15:54:38.991Z</time></trkpt><trkpt lat="43.8068117" lon="10.4052153"><ele>8.0</ele><time>2026-04-05T15:54:46Z</time></trkpt><trkpt lat="43.8067687" lon="10.4051451"><ele>7.999999999999999</ele><time>2026-04-05T15:54:53.001Z</time></trkpt><trkpt lat="43.8067244" lon="10.4050739"><ele>8.0</ele><time>2026-04-05T15:55:09.999Z</time></trkpt><trkpt lat="43.8066796" lon="10.405002"><ele>8.0</ele><time>2026-04-05T15:55:15.001Z</time></trkpt><trkpt lat="43.8066336" lon="10.4049306"><ele>8.142857142857142</ele><time>2026-04-05T15:55:21.997Z</time></trkpt><trkpt lat="43.806591" lon="10.4048599"><ele>8.285714285714285</ele><time>2026-04-05T15:55:27.999Z</time></trkpt><trkpt lat="43.806566" lon="10.404777"><ele>8.428571428571429</ele><time>2026-04-05T15:55:40Z</time></trkpt><trkpt lat="43.806533" lon="10.4047001"><ele>8.571428571428571</ele><time>2026-04-05T15:55:52.999Z</time></trkpt><trkpt lat="43.8064976" lon="10.4046231"><ele>8.714285714285715</ele><time>2026-04-05T15:56:00.997Z</time></trkpt><trkpt lat="43.8064487" lon="10.4045595"><ele>8.857142857142858</ele><time>2026-04-05T15:56:06.999Z</time></trkpt><trkpt lat="43.8064023" lon="10.4044907"><ele>9.0</ele><time>2026-04-05T15:56:14Z</time></trkpt><trkpt lat="43.8063842" lon="10.4044067"><ele>9.000000000000002</ele><time>2026-04-05T15:56:19.997Z</time></trkpt><trkpt lat="43.8063307" lon="10.4043436"><ele>9.0</ele><time>2026-04-05T15:56:26Z</time></trkpt><trkpt lat="43.8062816" lon="10.4042762"><ele>9.0</ele><time>2026-04-05T15:56:35.001Z</time></trkpt><trkpt lat="43.8062398" lon="10.4041995"><ele>9.0</ele><time>2026-04-05T15:56:42.001Z</time></trkpt><trkpt lat="43.8061977" lon="10.4041236"><ele>9.0</ele><time>2026-04-05T15:56:46.998Z</time></trkpt><trkpt lat="43.8061479" lon="10.4040523"><ele>9.000000000000002</ele><time>2026-04-05T15:56:51.999Z</time></trkpt><trkpt lat="43.806112" lon="10.403973"><ele>9.0</ele><time>2026-04-05T15:56:59.998Z</time></trkpt><trkpt lat="43.8060715" lon="10.4039022"><ele>9.000000000000002</ele><time>2026-04-05T15:57:07.001Z</time></trkpt><trkpt lat="43.8060291" lon="10.4038318"><ele>9.0</ele><time>2026-04-05T15:57:13.996Z</time></trkpt><trkpt lat="43.8059881" lon="10.4037645"><ele>9.0</ele><time>2026-04-05T15:57:29.001Z</time></trkpt><trkpt lat="43.8059514" lon="10.4036858"><ele>9.0</ele><time>2026-04-05T15:57:34.002Z</time></trkpt><trkpt lat="43.8059228" lon="10.4036076"><ele>9.0</ele><time>2026-04-05T15:57:44Z</time></trkpt><trkpt lat="43.8058769" lon="10.403539"><ele>9.000000000000002</ele><time>2026-04-05T15:57:49.999Z</time></trkpt><trkpt lat="43.8058394" lon="10.4034606"><ele>9.0</ele><time>2026-04-05T15:57:58.001Z</time></trkpt><trkpt lat="43.8057887" lon="10.4033827"><ele>9.142857142857144</ele><time>2026-04-05T15:58:08.001Z</time></trkpt><trkpt lat="43.8057472" lon="10.4033049"><ele>9.285714285714286</ele><time>2026-04-05T15:58:15.003Z</time></trkpt><trkpt lat="43.8057035" lon="10.4032329"><ele>9.428571428571429</ele><time>2026-04-05T15:58:25.999Z</time></trkpt><trkpt lat="43.8056514" lon="10.4031626"><ele>9.571428571428573</ele><time>2026-04-05T15:58:32.001Z</time></trkpt><trkpt lat="43.8056078" lon="10.4030878"><ele>9.714285714285715</ele><time>2026-04-05T15:58:40.999Z</time></trkpt><trkpt lat="43.8055721" lon="10.4030145"><ele>9.857142857142858</ele><time>2026-04-05T15:58:48Z</time></trkpt><trkpt lat="43.8055317" lon="10.4029343"><ele>10.0</ele><time>2026-04-05T15:58:56.001Z</time></trkpt><trkpt lat="43.8054779" lon="10.4028785"><ele>9.714285714285714</ele><time>2026-04-05T15:59:06.99Z</time></trkpt><trkpt lat="43.8054322" lon="10.4028068"><ele>9.428571428571429</ele><time>2026-04-05T15:59:15.001Z</time></trkpt><trkpt lat="43.8053939" lon="10.4027212"><ele>9.142857142857142</ele><time>2026-04-05T15:59:22.994Z</time></trkpt><trkpt lat="43.8053717" lon="10.4026324"><ele>8.857142857142858</ele><time>2026-04-05T15:59:31.986Z</time></trkpt><trkpt lat="43.8053406" lon="10.4025454"><ele>8.571428571428571</ele><time>2026-04-05T15:59:39.985Z</time></trkpt><trkpt lat="43.805285" lon="10.402487"><ele>8.285714285714285</ele><time>2026-04-05T15:59:46.985Z</time></trkpt><trkpt lat="43.8052283" lon="10.4024269"><ele>8.0</ele><time>2026-04-05T15:59:52.986Z</time></trkpt><trkpt lat="43.8051841" lon="10.4023499"><ele>8.0</ele><time>2026-04-05T16:00:03.988Z</time></trkpt><trkpt lat="43.8051467" lon="10.4022759"><ele>7.999999999999999</ele><time>2026-04-05T16:00:12.989Z</time></trkpt><trkpt lat="43.8050981" lon="10.4022125"><ele>8.0</ele><time>2026-04-05T16:00:18.986Z</time></trkpt><trkpt lat="43.8050444" lon="10.402142"><ele>8.0</ele><time>2026-04-05T16:00:25.988Z</time></trkpt><trkpt lat="43.8050193" lon="10.4020569"><ele>7.999999999999999</ele><time>2026-04-05T16:00:34.986Z</time></trkpt><trkpt lat="43.8049756" lon="10.4019872"><ele>8.0</ele><time>2026-04-05T16:00:40.987Z</time></trkpt><trkpt lat="43.8049425" lon="10.4019019"><ele>8.0</ele><time>2026-04-05T16:00:48.986Z</time></trkpt><trkpt lat="43.8049006" lon="10.4018282"><ele>8.0</ele><time>2026-04-05T16:00:55.988Z</time></trkpt><trkpt lat="43.8048577" lon="10.4017459"><ele>7.999999999999999</ele><time>2026-04-05T16:01:03.004Z</time></trkpt><trkpt lat="43.804816" lon="10.4016724"><ele>8.0</ele><time>2026-04-05T16:01:09.002Z</time></trkpt><trkpt lat="43.8047801" lon="10.4015972"><ele>8.0</ele><time>2026-04-05T16:01:16.001Z</time></trkpt><trkpt lat="43.8047361" lon="10.4015346"><ele>7.999999999999999</ele><time>2026-04-05T16:01:22Z</time></trkpt><trkpt lat="43.8047044" lon="10.4014583"><ele>8.0</ele><time>2026-04-05T16:01:31.011Z</time></trkpt><trkpt lat="43.8046606" lon="10.4013864"><ele>8.0</ele><time>2026-04-05T16:01:37.99Z</time></trkpt><trkpt lat="43.8046195" lon="10.401311"><ele>7.571428571428571</ele><time>2026-04-05T16:01:44.001Z</time></trkpt><trkpt lat="43.8045761" lon="10.4012391"><ele>7.142857142857142</ele><time>2026-04-05T16:01:51.001Z</time></trkpt><trkpt lat="43.8045388" lon="10.4011662"><ele>6.7142857142857135</ele><time>2026-04-05T16:01:59.001Z</time></trkpt><trkpt lat="43.8044933" lon="10.4011044"><ele>6.285714285714286</ele><time>2026-04-05T16:02:04.999Z</time></trkpt><trkpt lat="43.8044471" lon="10.4010325"><ele>5.857142857142858</ele><time>2026-04-05T16:02:17.001Z</time></trkpt><trkpt lat="43.8044163" lon="10.4009482"><ele>5.428571428571429</ele><time>2026-04-05T16:02:26.002Z</time></trkpt><trkpt lat="43.804378" lon="10.4008679"><ele>5.0</ele><time>2026-04-05T16:02:34Z</time></trkpt><trkpt lat="43.8043401" lon="10.4007961"><ele>5.428571428571429</ele><time>2026-04-05T16:02:41.001Z</time></trkpt><trkpt lat="43.8042992" lon="10.4007234"><ele>5.857142857142858</ele><time>2026-04-05T16:02:49.002Z</time></trkpt><trkpt lat="43.8042549" lon="10.4006607"><ele>6.285714285714286</ele><time>2026-04-05T16:02:56Z</time></trkpt><trkpt lat="43.8042037" lon="10.4005877"><ele>6.7142857142857135</ele><time>2026-04-05T16:03:02Z</time></trkpt><trkpt lat="43.8041609" lon="10.4005122"><ele>7.142857142857142</ele><time>2026-04-05T16:03:09.003Z</time></trkpt><trkpt lat="43.8041206" lon="10.4004308"><ele>7.571428571428571</ele><time>2026-04-05T16:03:17.997Z</time></trkpt><trkpt lat="43.8040841" lon="10.4003577"><ele>8.0</ele><time>2026-04-05T16:03:29.002Z</time></trkpt><trkpt lat="43.8040408" lon="10.4002881"><ele>8.142857142857142</ele><time>2026-04-05T16:03:35.992Z</time></trkpt><trkpt lat="43.803995" lon="10.4002229"><ele>8.285714285714285</ele><time>2026-04-05T16:03:42.994Z</time></trkpt><trkpt lat="43.8039512" lon="10.4001503"><ele>8.428571428571429</ele><time>2026-04-05T16:03:57.998Z</time></trkpt><trkpt lat="43.8039097" lon="10.4000847"><ele>8.571428571428571</ele><time>2026-04-05T16:04:05.002Z</time></trkpt><trkpt lat="43.8038594" lon="10.4000126"><ele>8.714285714285715</ele><time>2026-04-05T16:04:11.003Z</time></trkpt><trkpt lat="43.8038089" lon="10.3999426"><ele>8.857142857142858</ele><time>2026-04-05T16:04:16.001Z</time></trkpt><trkpt lat="43.8037525" lon="10.3998804"><ele>9.0</ele><time>2026-04-05T16:04:22.997Z</time></trkpt><trkpt lat="43.803703" lon="10.3998124"><ele>9.000000000000002</ele><time>2026-04-05T16:04:31.002Z</time></trkpt><trkpt lat="43.8036523" lon="10.3997457"><ele>9.0</ele><time>2026-04-05T16:04:36.986Z</time></trkpt><trkpt lat="43.8035881" lon="10.3996908"><ele>9.0</ele><time>2026-04-05T16:04:46.986Z</time></trkpt><trkpt lat="43.8035303" lon="10.3996333"><ele>9.0</ele><time>2026-04-05T16:04:53.987Z</time></trkpt><trkpt lat="43.8034702" lon="10.3995948"><ele>9.0</ele><time>2026-04-05T16:05:01.987Z</time></trkpt><trkpt lat="43.8034091" lon="10.3995565"><ele>9.000000000000002</ele><time>2026-04-05T16:05:09.986Z</time></trkpt><trkpt lat="43.803348" lon="10.3995278"><ele>9.0</ele><time>2026-04-05T16:05:16.988Z</time></trkpt><trkpt lat="43.8032825" lon="10.399499"><ele>8.714285714285715</ele><time>2026-04-05T16:05:22.987Z</time></trkpt><trkpt lat="43.8032142" lon="10.3994628"><ele>8.428571428571429</ele><time>2026-04-05T16:05:31.987Z</time></trkpt><trkpt lat="43.8031427" lon="10.3994486"><ele>8.142857142857142</ele><time>2026-04-05T16:05:39.986Z</time></trkpt><trkpt lat="43.8030727" lon="10.3994399"><ele>7.857142857142858</ele><time>2026-04-05T16:05:45.985Z</time></trkpt><trkpt lat="43.8030023" lon="10.39943"><ele>7.571428571428571</ele><time>2026-04-05T16:05:52.987Z</time></trkpt><trkpt lat="43.802934" lon="10.3994366"><ele>7.285714285714286</ele><time>2026-04-05T16:06:02.986Z</time></trkpt><trkpt lat="43.8028626" lon="10.3994349"><ele>7.0</ele><time>2026-04-05T16:06:09.988Z</time></trkpt><trkpt lat="43.8027927" lon="10.3994435"><ele>7.0</ele><time>2026-04-05T16:06:17.986Z</time></trkpt><trkpt lat="43.8027303" lon="10.399462"><ele>7.0</ele><time>2026-04-05T16:06:25.987Z</time></trkpt><trkpt lat="43.8026599" lon="10.3994631"><ele>7.0</ele><time>2026-04-05T16:06:31.987Z</time></trkpt><trkpt lat="43.8025939" lon="10.399486"><ele>7.0</ele><time>2026-04-05T16:06:39.988Z</time></trkpt><trkpt lat="43.8025286" lon="10.3995161"><ele>7.0</ele><time>2026-04-05T16:06:49.986Z</time></trkpt><trkpt lat="43.8024658" lon="10.3995556"><ele>7.0</ele><time>2026-04-05T16:06:56.987Z</time></trkpt><trkpt lat="43.802403" lon="10.3995995"><ele>7.0</ele><time>2026-04-05T16:07:03.986Z</time></trkpt><trkpt lat="43.8023338" lon="10.3996128"><ele>7.142857142857142</ele><time>2026-04-05T16:07:10.986Z</time></trkpt><trkpt lat="43.8022733" lon="10.3996632"><ele>7.285714285714286</ele><time>2026-04-05T16:07:16.986Z</time></trkpt><trkpt lat="43.8022185" lon="10.3997063"><ele>7.428571428571429</ele><time>2026-04-05T16:07:21.986Z</time></trkpt><trkpt lat="43.8021578" lon="10.3997589"><ele>7.571428571428571</ele><time>2026-04-05T16:07:34.986Z</time></trkpt><trkpt lat="43.8020948" lon="10.3997932"><ele>7.7142857142857135</ele><time>2026-04-05T16:07:43.986Z</time></trkpt><trkpt lat="43.8020312" lon="10.3998286"><ele>7.857142857142857</ele><time>2026-04-05T16:07:53.986Z</time></trkpt><trkpt lat="43.8020952" lon="10.399804"><ele>8.0</ele><time>2026-04-05T16:09:08.99Z</time></trkpt><trkpt lat="43.8021613" lon="10.3997729"><ele>8.0</ele><time>2026-04-05T16:09:15.988Z</time></trkpt><trkpt lat="43.8021988" lon="10.3996916"><ele>7.999999999999999</ele><time>2026-04-05T16:09:23.987Z</time></trkpt><trkpt lat="43.8021961" lon="10.3996004"><ele>8.0</ele><time>2026-04-05T16:09:31.988Z</time></trkpt><trkpt lat="43.8021705" lon="10.3995022"><ele>8.0</ele><time>2026-04-05T16:09:37.986Z</time></trkpt><trkpt lat="43.8021431" lon="10.3994074"><ele>7.999999999999999</ele><time>2026-04-05T16:09:43.987Z</time></trkpt><trkpt lat="43.8021218" lon="10.3993137"><ele>8.0</ele><time>2026-04-05T16:09:51.987Z</time></trkpt><trkpt lat="43.802088" lon="10.3992291"><ele>8.0</ele><time>2026-04-05T16:09:57.985Z</time></trkpt><trkpt lat="43.8020751" lon="10.3991359"><ele>8.0</ele><time>2026-04-05T16:10:06.987Z</time></trkpt><trkpt lat="43.8021186" lon="10.3990423"><ele>7.999999999999999</ele><time>2026-04-05T16:10:20.987Z</time></trkpt><trkpt lat="43.8020903" lon="10.3991249"><ele>8.0</ele><time>2026-04-05T16:10:55.985Z</time></trkpt><trkpt lat="43.8021507" lon="10.3990793"><ele>8.0</ele><time>2026-04-05T16:11:23.986Z</time></trkpt><trkpt lat="43.8022175" lon="10.3990616"><ele>7.999999999999999</ele><time>2026-04-05T16:11:30.985Z</time></trkpt><trkpt lat="43.8022776" lon="10.3990083"><ele>8.0</ele><time>2026-04-05T16:11:38.986Z</time></trkpt><trkpt lat="43.8023485" lon="10.3990101"><ele>8.0</ele><time>2026-04-05T16:11:44.986Z</time></trkpt><trkpt lat="43.8024151" lon="10.3990033"><ele>8.0</ele><time>2026-04-05T16:11:50.987Z</time></trkpt><trkpt lat="43.8024724" lon="10.3989525"><ele>7.999999999999999</ele><time>2026-04-05T16:11:59.988Z</time></trkpt><trkpt lat="43.8025404" lon="10.3989281"><ele>8.0</ele><time>2026-04-05T16:12:10.986Z</time></trkpt><trkpt lat="43.8026109" lon="10.3989193"><ele>8.0</ele><time>2026-04-05T16:12:18.987Z</time></trkpt><trkpt lat="43.8025417" lon="10.3989367"><ele>7.999999999999999</ele><time>2026-04-05T16:13:00.99Z</time></trkpt><trkpt lat="43.8024751" lon="10.3989618"><ele>8.0</ele><time>2026-04-05T16:13:08.987Z</time></trkpt><trkpt lat="43.8024137" lon="10.3989812"><ele>8.0</ele><time>2026-04-05T16:13:20.985Z</time></trkpt><trkpt lat="43.8023511" lon="10.3989995"><ele>8.0</ele><time>2026-04-05T16:13:28.986Z</time></trkpt><trkpt lat="43.8022869" lon="10.3990153"><ele>7.999999999999999</ele><time>2026-04-05T16:13:35.987Z</time></trkpt><trkpt lat="43.8022218" lon="10.3990469"><ele>8.0</ele><time>2026-04-05T16:13:44.988Z</time></trkpt><trkpt lat="43.8021531" lon="10.3990755"><ele>8.0</ele><time>2026-04-05T16:13:57.985Z</time></trkpt><trkpt lat="43.802091" lon="10.399122"><ele>7.999999999999999</ele><time>2026-04-05T16:14:05.986Z</time></trkpt><trkpt lat="43.8020371" lon="10.3991746"><ele>8.0</ele><time>2026-04-05T16:14:12.986Z</time></trkpt><trkpt lat="43.801973" lon="10.3991632"><ele>8.0</ele><time>2026-04-05T16:14:24.988Z</time></trkpt><trkpt lat="43.8019171" lon="10.3990533"><ele>8.0</ele><time>2026-04-05T16:15:49.002Z</time></trkpt><trkpt lat="43.8019118" lon="10.3991459"><ele>7.999999999999999</ele><time>2026-04-05T16:17:24Z</time></trkpt><trkpt lat="43.8019735" lon="10.3991658"><ele>8.0</ele><time>2026-04-05T16:17:33.003Z</time></trkpt><trkpt lat="43.8020359" lon="10.3992104"><ele>8.0</ele><time>2026-04-05T16:17:42.001Z</time></trkpt><trkpt lat="43.8020906" lon="10.3992997"><ele>7.999999999999999</ele><time>2026-04-05T16:18:14.987Z</time></trkpt><trkpt lat="43.8021272" lon="10.3993707"><ele>8.0</ele><time>2026-04-05T16:18:28.995Z</time></trkpt><trkpt lat="43.8021512" lon="10.3994532"><ele>8.0</ele><time>2026-04-05T16:18:37.002Z</time></trkpt><trkpt lat="43.8021722" lon="10.3995383"><ele>8.0</ele><time>2026-04-05T16:18:45.003Z</time></trkpt><trkpt lat="43.8021919" lon="10.3996279"><ele>7.999999999999999</ele><time>2026-04-05T16:18:52.003Z</time></trkpt><trkpt lat="43.8021875" lon="10.3997206"><ele>8.0</ele><time>2026-04-05T16:18:57.984Z</time></trkpt><trkpt lat="43.8021477" lon="10.399795"><ele>8.0</ele><time>2026-04-05T16:21:50.999Z</time></trkpt><trkpt lat="43.8020843" lon="10.3998138"><ele>7.999999999999999</ele><time>2026-04-05T16:21:59.001Z</time></trkpt><trkpt lat="43.8020295" lon="10.3998598"><ele>8.0</ele><time>2026-04-05T16:22:10.001Z</time></trkpt><trkpt lat="43.8019617" lon="10.3998917"><ele>8.0</ele><time>2026-04-05T16:22:16.991Z</time></trkpt><trkpt lat="43.8019074" lon="10.3999508"><ele>8.0</ele><time>2026-04-05T16:22:26.002Z</time></trkpt><trkpt lat="43.8018505" lon="10.399994"><ele>7.999999999999999</ele><time>2026-04-05T16:22:40.003Z</time></trkpt><trkpt lat="43.8018182" lon="10.4000772"><ele>8.0</ele><time>2026-04-05T16:22:52.002Z</time></trkpt><trkpt lat="43.8017757" lon="10.4001508"><ele>8.0</ele><time>2026-04-05T16:23:00.001Z</time></trkpt><trkpt lat="43.8017344" lon="10.4002192"><ele>7.999999999999999</ele><time>2026-04-05T16:23:07.005Z</time></trkpt><trkpt lat="43.8016816" lon="10.4002743"><ele>8.0</ele><time>2026-04-05T16:23:14.999Z</time></trkpt><trkpt lat="43.8016366" lon="10.4003394"><ele>8.0</ele><time>2026-04-05T16:23:23.003Z</time></trkpt><trkpt lat="43.8015874" lon="10.4004057"><ele>8.0</ele><time>2026-04-05T16:23:29.99Z</time></trkpt><trkpt lat="43.8015404" lon="10.4004726"><ele>7.999999999999999</ele><time>2026-04-05T16:23:36.996Z</time></trkpt><trkpt lat="43.8014979" lon="10.4005412"><ele>8.0</ele><time>2026-04-05T16:23:45.002Z</time></trkpt><trkpt lat="43.8014486" lon="10.4006011"><ele>8.0</ele><time>2026-04-05T16:23:52.001Z</time></trkpt><trkpt lat="43.8013849" lon="10.4006449"><ele>7.999999999999999</ele><time>2026-04-05T16:24:03.003Z</time></trkpt><trkpt lat="43.8013366" lon="10.4007142"><ele>8.0</ele><time>2026-04-05T16:24:12.996Z</time></trkpt><trkpt lat="43.8012879" lon="10.4008007"><ele>8.0</ele><time>2026-04-05T16:24:37.998Z</time></trkpt><trkpt lat="43.8012452" lon="10.4008788"><ele>8.0</ele><time>2026-04-05T16:24:44.998Z</time></trkpt><trkpt lat="43.8011966" lon="10.4009448"><ele>7.999999999999999</ele><time>2026-04-05T16:24:51.002Z</time></trkpt><trkpt lat="43.8011263" lon="10.4010375"><ele>8.0</ele><time>2026-04-05T16:25:10.996Z</time></trkpt><trkpt lat="43.8010756" lon="10.4011061"><ele>8.0</ele><time>2026-04-05T16:25:43.989Z</time></trkpt><trkpt lat="43.8010315" lon="10.4011688"><ele>7.999999999999999</ele><time>2026-04-05T16:25:51.987Z</time></trkpt><trkpt lat="43.8009869" lon="10.4012424"><ele>8.0</ele><time>2026-04-05T16:25:58.989Z</time></trkpt><trkpt lat="43.8009361" lon="10.4013026"><ele>8.0</ele><time>2026-04-05T16:26:07.986Z</time></trkpt><trkpt lat="43.8008843" lon="10.4013551"><ele>8.142857142857142</ele><time>2026-04-05T16:26:19.987Z</time></trkpt><trkpt lat="43.8008473" lon="10.4014329"><ele>8.285714285714285</ele><time>2026-04-05T16:26:27.988Z</time></trkpt><trkpt lat="43.8008071" lon="10.4015103"><ele>8.428571428571429</ele><time>2026-04-05T16:26:36.986Z</time></trkpt><trkpt lat="43.8007567" lon="10.401564"><ele>8.571428571428571</ele><time>2026-04-05T16:26:44.988Z</time></trkpt><trkpt lat="43.8007128" lon="10.401631"><ele>8.714285714285715</ele><time>2026-04-05T16:26:52.987Z</time></trkpt><trkpt lat="43.800658" lon="10.4016843"><ele>8.857142857142858</ele><time>2026-04-05T16:26:59.986Z</time></trkpt><trkpt lat="43.800617" lon="10.4017519"><ele>9.0</ele><time>2026-04-05T16:27:07.986Z</time></trkpt><trkpt lat="43.8005629" lon="10.4017989"><ele>9.000000000000002</ele><time>2026-04-05T16:27:14.986Z</time></trkpt><trkpt lat="43.8005273" lon="10.4018713"><ele>9.0</ele><time>2026-04-05T16:27:28.987Z</time></trkpt><trkpt lat="43.8004678" lon="10.4019188"><ele>9.0</ele><time>2026-04-05T16:27:38.988Z</time></trkpt><trkpt lat="43.800422" lon="10.4019803"><ele>9.0</ele><time>2026-04-05T16:27:45.986Z</time></trkpt><trkpt lat="43.8003718" lon="10.4020358"><ele>9.0</ele><time>2026-04-05T16:27:53.987Z</time></trkpt><trkpt lat="43.8003223" lon="10.4021067"><ele>9.000000000000002</ele><time>2026-04-05T16:28:01.987Z</time></trkpt><trkpt lat="43.800281" lon="10.4021794"><ele>9.0</ele><time>2026-04-05T16:28:10.988Z</time></trkpt><trkpt lat="43.800226" lon="10.4022578"><ele>8.857142857142858</ele><time>2026-04-05T16:28:17.989Z</time></trkpt><trkpt lat="43.8001891" lon="10.4023357"><ele>8.714285714285715</ele><time>2026-04-05T16:28:28.987Z</time></trkpt><trkpt lat="43.8001366" lon="10.4023959"><ele>8.571428571428571</ele><time>2026-04-05T16:28:35.988Z</time></trkpt><trkpt lat="43.8000976" lon="10.4024669"><ele>8.428571428571429</ele><time>2026-04-05T16:28:42.988Z</time></trkpt><trkpt lat="43.8000545" lon="10.402538"><ele>8.285714285714285</ele><time>2026-04-05T16:28:51.986Z</time></trkpt><trkpt lat="43.8000132" lon="10.4026089"><ele>8.142857142857142</ele><time>2026-04-05T16:29:00.986Z</time></trkpt><trkpt lat="43.799959" lon="10.4026691"><ele>8.0</ele><time>2026-04-05T16:29:10.987Z</time></trkpt><trkpt lat="43.7998742" lon="10.4027691"><ele>8.0</ele><time>2026-04-05T16:29:29.986Z</time></trkpt><trkpt lat="43.7998256" lon="10.4028405"><ele>7.999999999999999</ele><time>2026-04-05T16:29:37.986Z</time></trkpt><trkpt lat="43.7997791" lon="10.4029003"><ele>8.0</ele><time>2026-04-05T16:29:48.985Z</time></trkpt><trkpt lat="43.7997213" lon="10.4029391"><ele>8.0</ele><time>2026-04-05T16:29:59.986Z</time></trkpt><trkpt lat="43.7996925" lon="10.4030254"><ele>7.999999999999999</ele><time>2026-04-05T16:30:07.987Z</time></trkpt><trkpt lat="43.7996503" lon="10.4030986"><ele>8.0</ele><time>2026-04-05T16:30:16.988Z</time></trkpt><trkpt lat="43.7995961" lon="10.403154"><ele>8.0</ele><time>2026-04-05T16:30:24.99Z</time></trkpt><trkpt lat="43.79955" lon="10.4032145"><ele>8.0</ele><time>2026-04-05T16:30:32.987Z</time></trkpt><trkpt lat="43.7995008" lon="10.4032721"><ele>7.999999999999999</ele><time>2026-04-05T16:30:41.989Z</time></trkpt><trkpt lat="43.799452" lon="10.4033365"><ele>8.0</ele><time>2026-04-05T16:30:48.986Z</time></trkpt><trkpt lat="43.7994106" lon="10.4034023"><ele>8.0</ele><time>2026-04-05T16:30:55.986Z</time></trkpt><trkpt lat="43.7993627" lon="10.4034613"><ele>7.999999999999999</ele><time>2026-04-05T16:31:03.989Z</time></trkpt><trkpt lat="43.7993199" lon="10.4035357"><ele>8.0</ele><time>2026-04-05T16:31:12.99Z</time></trkpt><trkpt lat="43.7992701" lon="10.4035941"><ele>8.0</ele><time>2026-04-05T16:31:20.988Z</time></trkpt><trkpt lat="43.7992113" lon="10.4036568"><ele>7.857142857142857</ele><time>2026-04-05T16:31:27.989Z</time></trkpt><trkpt lat="43.7991489" lon="10.4036447"><ele>7.7142857142857135</ele><time>2026-04-05T16:31:38.986Z</time></trkpt><trkpt lat="43.7990967" lon="10.4035855"><ele>7.571428571428571</ele><time>2026-04-05T16:31:50.986Z</time></trkpt><trkpt lat="43.7990508" lon="10.4035134"><ele>7.428571428571429</ele><time>2026-04-05T16:31:55.986Z</time></trkpt><trkpt lat="43.7989994" lon="10.4034562"><ele>7.285714285714286</ele><time>2026-04-05T16:32:05.987Z</time></trkpt><trkpt lat="43.7990538" lon="10.4035208"><ele>7.142857142857142</ele><time>2026-04-05T16:33:07.004Z</time></trkpt><trkpt lat="43.7991133" lon="10.4036309"><ele>7.0</ele><time>2026-04-05T16:33:37.002Z</time></trkpt><trkpt lat="43.799138" lon="10.4037129"><ele>7.0</ele><time>2026-04-05T16:33:55.988Z</time></trkpt><trkpt lat="43.7991417" lon="10.4038269"><ele>7.0</ele><time>2026-04-05T16:34:18.987Z</time></trkpt><trkpt lat="43.7990846" lon="10.4038715"><ele>7.0</ele><time>2026-04-05T16:34:23.989Z</time></trkpt><trkpt lat="43.7990284" lon="10.4039158"><ele>7.0</ele><time>2026-04-05T16:34:31.989Z</time></trkpt><trkpt lat="43.798978" lon="10.4039899"><ele>7.0</ele><time>2026-04-05T16:34:38.987Z</time></trkpt><trkpt lat="43.7989359" lon="10.4040692"><ele>7.0</ele><time>2026-04-05T16:34:46.987Z</time></trkpt><trkpt lat="43.7988993" lon="10.4041407"><ele>7.0</ele><time>2026-04-05T16:35:00.001Z</time></trkpt><trkpt lat="43.7988374" lon="10.4041873"><ele>7.142857142857142</ele><time>2026-04-05T16:35:36.987Z</time></trkpt><trkpt lat="43.7987856" lon="10.4042538"><ele>7.285714285714286</ele><time>2026-04-05T16:35:46.99Z</time></trkpt><trkpt lat="43.7987437" lon="10.4043321"><ele>7.428571428571429</ele><time>2026-04-05T16:35:56.989Z</time></trkpt><trkpt lat="43.7986873" lon="10.4043897"><ele>7.571428571428571</ele><time>2026-04-05T16:36:05.99Z</time></trkpt><trkpt lat="43.7986351" lon="10.4044442"><ele>7.7142857142857135</ele><time>2026-04-05T16:36:11.989Z</time></trkpt><trkpt lat="43.7985949" lon="10.4045183"><ele>7.857142857142857</ele><time>2026-04-05T16:36:21.989Z</time></trkpt><trkpt lat="43.7985521" lon="10.4045938"><ele>8.0</ele><time>2026-04-05T16:36:27.989Z</time></trkpt><trkpt lat="43.7985011" lon="10.4046522"><ele>8.0</ele><time>2026-04-05T16:36:34.988Z</time></trkpt><trkpt lat="43.7984431" lon="10.4046912"><ele>7.999999999999999</ele><time>2026-04-05T16:36:41.989Z</time></trkpt><trkpt lat="43.7984077" lon="10.4047695"><ele>8.0</ele><time>2026-04-05T16:36:49.989Z</time></trkpt><trkpt lat="43.7983639" lon="10.4048334"><ele>8.0</ele><time>2026-04-05T16:36:57.986Z</time></trkpt><trkpt lat="43.7983214" lon="10.404906"><ele>7.999999999999999</ele><time>2026-04-05T16:37:05.989Z</time></trkpt><trkpt lat="43.7982687" lon="10.4049675"><ele>8.0</ele><time>2026-04-05T16:37:16.989Z</time></trkpt><trkpt lat="43.7982219" lon="10.4050386"><ele>8.0</ele><time>2026-04-05T16:37:23.989Z</time></trkpt><trkpt lat="43.798181" lon="10.4051118"><ele>8.0</ele><time>2026-04-05T16:37:30.988Z</time></trkpt><trkpt lat="43.7981351" lon="10.4051815"><ele>7.999999999999999</ele><time>2026-04-05T16:37:43.989Z</time></trkpt><trkpt lat="43.7980727" lon="10.4052556"><ele>8.0</ele><time>2026-04-05T16:38:19.989Z</time></trkpt><trkpt lat="43.7980353" lon="10.4053323"><ele>8.0</ele><time>2026-04-05T16:38:27.989Z</time></trkpt><trkpt lat="43.7979854" lon="10.4054006"><ele>7.999999999999999</ele><time>2026-04-05T16:38:34.99Z</time></trkpt><trkpt lat="43.7979382" lon="10.40546"><ele>8.0</ele><time>2026-04-05T16:38:41.988Z</time></trkpt><trkpt lat="43.797885" lon="10.4055209"><ele>8.0</ele><time>2026-04-05T16:38:48.988Z</time></trkpt><trkpt lat="43.7978918" lon="10.4056387"><ele>8.0</ele><time>2026-04-05T16:39:26.988Z</time></trkpt><trkpt lat="43.7979621" lon="10.4055606"><ele>7.999999999999999</ele><time>2026-04-05T16:40:23.986Z</time></trkpt><trkpt lat="43.7980074" lon="10.4054953"><ele>8.0</ele><time>2026-04-05T16:40:32.988Z</time></trkpt><trkpt lat="43.7980543" lon="10.4054305"><ele>8.0</ele><time>2026-04-05T16:40:48.986Z</time></trkpt><trkpt lat="43.7980979" lon="10.405364"><ele>7.999999999999999</ele><time>2026-04-05T16:41:02.989Z</time></trkpt><trkpt lat="43.7981466" lon="10.4052963"><ele>8.0</ele><time>2026-04-05T16:41:11.99Z</time></trkpt><trkpt lat="43.7981913" lon="10.4052332"><ele>8.0</ele><time>2026-04-05T16:41:17.987Z</time></trkpt><trkpt lat="43.7982367" lon="10.4051646"><ele>8.0</ele><time>2026-04-05T16:41:26.989Z</time></trkpt><trkpt lat="43.7982882" lon="10.4051092"><ele>7.999999999999999</ele><time>2026-04-05T16:41:37.99Z</time></trkpt><trkpt lat="43.7983322" lon="10.405043"><ele>8.0</ele><time>2026-04-05T16:41:49.987Z</time></trkpt><trkpt lat="43.7983777" lon="10.4049807"><ele>8.0</ele><time>2026-04-05T16:41:56.987Z</time></trkpt><trkpt lat="43.7984368" lon="10.4049007"><ele>7.999999999999999</ele><time>2026-04-05T16:42:18.99Z</time></trkpt><trkpt lat="43.7984806" lon="10.404835"><ele>8.0</ele><time>2026-04-05T16:42:25.988Z</time></trkpt><trkpt lat="43.7985304" lon="10.4047704"><ele>8.0</ele><time>2026-04-05T16:42:32.989Z</time></trkpt><trkpt lat="43.7985705" lon="10.4046924"><ele>8.0</ele><time>2026-04-05T16:42:41.988Z</time></trkpt><trkpt lat="43.7986171" lon="10.4046312"><ele>7.999999999999999</ele><time>2026-04-05T16:42:48.986Z</time></trkpt><trkpt lat="43.7986622" lon="10.4045635"><ele>8.0</ele><time>2026-04-05T16:42:59.988Z</time></trkpt><trkpt lat="43.7987378" lon="10.4045051"><ele>8.0</ele><time>2026-04-05T16:43:22.986Z</time></trkpt><trkpt lat="43.7987817" lon="10.4044415"><ele>7.999999999999999</ele><time>2026-04-05T16:43:31.988Z</time></trkpt><trkpt lat="43.7988275" lon="10.4043687"><ele>8.0</ele><time>2026-04-05T16:43:39.989Z</time></trkpt><trkpt lat="43.7988711" lon="10.4042989"><ele>8.0</ele><time>2026-04-05T16:43:46.989Z</time></trkpt><trkpt lat="43.7989239" lon="10.4042272"><ele>8.0</ele><time>2026-04-05T16:44:00.989Z</time></trkpt><trkpt lat="43.7989714" lon="10.4041645"><ele>7.999999999999999</ele><time>2026-04-05T16:44:06.985Z</time></trkpt><trkpt lat="43.7990197" lon="10.4040917"><ele>8.0</ele><time>2026-04-05T16:44:13.989Z</time></trkpt><trkpt lat="43.7990626" lon="10.4040235"><ele>8.0</ele><time>2026-04-05T16:44:21.988Z</time></trkpt><trkpt lat="43.7991202" lon="10.4039529"><ele>7.999999999999999</ele><time>2026-04-05T16:44:39.989Z</time></trkpt><trkpt lat="43.7991774" lon="10.4038835"><ele>8.0</ele><time>2026-04-05T16:44:55.988Z</time></trkpt><trkpt lat="43.7992255" lon="10.4038174"><ele>8.0</ele><time>2026-04-05T16:45:03.985Z</time></trkpt><trkpt lat="43.7992662" lon="10.4037431"><ele>8.0</ele><time>2026-04-05T16:45:10.986Z</time></trkpt><trkpt lat="43.7993142" lon="10.4036807"><ele>7.999999999999999</ele><time>2026-04-05T16:45:19.987Z</time></trkpt><trkpt lat="43.7993632" lon="10.4036254"><ele>8.0</ele><time>2026-04-05T16:45:27.986Z</time></trkpt><trkpt lat="43.7994126" lon="10.4035536"><ele>8.0</ele><time>2026-04-05T16:45:35.986Z</time></trkpt><trkpt lat="43.7994587" lon="10.4034876"><ele>7.999999999999999</ele><time>2026-04-05T16:45:43.985Z</time></trkpt><trkpt lat="43.799506" lon="10.4034201"><ele>8.0</ele><time>2026-04-05T16:45:51.985Z</time></trkpt><trkpt lat="43.7995602" lon="10.4033642"><ele>8.0</ele><time>2026-04-05T16:45:59.986Z</time></trkpt><trkpt lat="43.7995768" lon="10.4032766"><ele>8.0</ele><time>2026-04-05T16:46:07.985Z</time></trkpt><trkpt lat="43.799642" lon="10.4032343"><ele>7.999999999999999</ele><time>2026-04-05T16:46:19.988Z</time></trkpt><trkpt lat="43.7996966" lon="10.4031734"><ele>8.0</ele><time>2026-04-05T16:46:26.987Z</time></trkpt><trkpt lat="43.799743" lon="10.4031141"><ele>8.0</ele><time>2026-04-05T16:46:33.986Z</time></trkpt><trkpt lat="43.799792" lon="10.403045"><ele>7.999999999999999</ele><time>2026-04-05T16:46:43.986Z</time></trkpt><trkpt lat="43.7998472" lon="10.402985"><ele>8.0</ele><time>2026-04-05T16:46:51.987Z</time></trkpt><trkpt lat="43.7998862" lon="10.4029057"><ele>8.0</ele><time>2026-04-05T16:46:59.988Z</time></trkpt><trkpt lat="43.7999311" lon="10.402833"><ele>8.0</ele><time>2026-04-05T16:47:07.986Z</time></trkpt><trkpt lat="43.799981" lon="10.4027675"><ele>7.999999999999999</ele><time>2026-04-05T16:47:15.99Z</time></trkpt><trkpt lat="43.8000285" lon="10.4027061"><ele>8.0</ele><time>2026-04-05T16:47:22.987Z</time></trkpt><trkpt lat="43.8000793" lon="10.4026436"><ele>8.0</ele><time>2026-04-05T16:47:30.984Z</time></trkpt><trkpt lat="43.800124" lon="10.402575"><ele>7.999999999999999</ele><time>2026-04-05T16:47:39.985Z</time></trkpt><trkpt lat="43.8001705" lon="10.4025045"><ele>8.0</ele><time>2026-04-05T16:47:49.985Z</time></trkpt><trkpt lat="43.8002209" lon="10.4024363"><ele>8.0</ele><time>2026-04-05T16:47:57.985Z</time></trkpt><trkpt lat="43.800269" lon="10.4023684"><ele>8.0</ele><time>2026-04-05T16:48:05.988Z</time></trkpt><trkpt lat="43.800318" lon="10.4023098"><ele>7.999999999999999</ele><time>2026-04-05T16:48:13.988Z</time></trkpt><trkpt lat="43.8003594" lon="10.4022355"><ele>8.0</ele><time>2026-04-05T16:48:22.987Z</time></trkpt><trkpt lat="43.8004114" lon="10.4021726"><ele>8.0</ele><time>2026-04-05T16:48:31.988Z</time></trkpt><trkpt lat="43.8004587" lon="10.4021092"><ele>7.999999999999999</ele><time>2026-04-05T16:48:39.989Z</time></trkpt><trkpt lat="43.8005079" lon="10.402039"><ele>8.0</ele><time>2026-04-05T16:48:46.986Z</time></trkpt><trkpt lat="43.8005529" lon="10.4019647"><ele>8.0</ele><time>2026-04-05T16:48:55.988Z</time></trkpt><trkpt lat="43.8006014" lon="10.4018927"><ele>8.142857142857142</ele><time>2026-04-05T16:49:03.986Z</time></trkpt><trkpt lat="43.8006522" lon="10.4018282"><ele>8.285714285714285</ele><time>2026-04-05T16:49:11.988Z</time></trkpt><trkpt lat="43.8006988" lon="10.4017694"><ele>8.428571428571429</ele><time>2026-04-05T16:49:18.986Z</time></trkpt><trkpt lat="43.8007495" lon="10.4017163"><ele>8.571428571428571</ele><time>2026-04-05T16:49:26.986Z</time></trkpt><trkpt lat="43.8007903" lon="10.4016435"><ele>8.714285714285715</ele><time>2026-04-05T16:49:35.988Z</time></trkpt><trkpt lat="43.8008313" lon="10.4015767"><ele>8.857142857142858</ele><time>2026-04-05T16:49:45.987Z</time></trkpt><trkpt lat="43.8008751" lon="10.4015075"><ele>9.0</ele><time>2026-04-05T16:49:54.988Z</time></trkpt><trkpt lat="43.8009215" lon="10.4014439"><ele>9.000000000000002</ele><time>2026-04-05T16:50:02.987Z</time></trkpt><trkpt lat="43.8009728" lon="10.4013794"><ele>9.0</ele><time>2026-04-05T16:50:09.987Z</time></trkpt><trkpt lat="43.8010245" lon="10.4013143"><ele>9.0</ele><time>2026-04-05T16:50:18.985Z</time></trkpt><trkpt lat="43.8010753" lon="10.4012566"><ele>9.0</ele><time>2026-04-05T16:50:26.988Z</time></trkpt><trkpt lat="43.8011258" lon="10.4011956"><ele>9.0</ele><time>2026-04-05T16:50:34.988Z</time></trkpt><trkpt lat="43.8011711" lon="10.4011287"><ele>9.000000000000002</ele><time>2026-04-05T16:50:42.988Z</time></trkpt><trkpt lat="43.8012189" lon="10.4010603"><ele>9.0</ele><time>2026-04-05T16:50:50.988Z</time></trkpt><trkpt lat="43.8012492" lon="10.4009736"><ele>8.857142857142858</ele><time>2026-04-05T16:50:59.988Z</time></trkpt><trkpt lat="43.8013059" lon="10.4009294"><ele>8.714285714285715</ele><time>2026-04-05T16:51:05.99Z</time></trkpt><trkpt lat="43.8013532" lon="10.4008621"><ele>8.571428571428571</ele><time>2026-04-05T16:51:14.988Z</time></trkpt><trkpt lat="43.8013995" lon="10.4007946"><ele>8.428571428571429</ele><time>2026-04-05T16:51:22.988Z</time></trkpt><trkpt lat="43.8014465" lon="10.4007283"><ele>8.285714285714285</ele><time>2026-04-05T16:51:31.989Z</time></trkpt><trkpt lat="43.8014947" lon="10.4006636"><ele>8.142857142857142</ele><time>2026-04-05T16:51:39.987Z</time></trkpt><trkpt lat="43.8015457" lon="10.4006045"><ele>8.0</ele><time>2026-04-05T16:51:47.988Z</time></trkpt><trkpt lat="43.801591" lon="10.4005381"><ele>8.0</ele><time>2026-04-05T16:51:57.986Z</time></trkpt><trkpt lat="43.8016459" lon="10.4004744"><ele>7.999999999999999</ele><time>2026-04-05T16:52:06.988Z</time></trkpt><trkpt lat="43.8016899" lon="10.4004094"><ele>8.0</ele><time>2026-04-05T16:52:14.988Z</time></trkpt><trkpt lat="43.8017331" lon="10.4003418"><ele>8.0</ele><time>2026-04-05T16:52:21.987Z</time></trkpt><trkpt lat="43.801778" lon="10.4002762"><ele>7.999999999999999</ele><time>2026-04-05T16:52:29.986Z</time></trkpt><trkpt lat="43.8018335" lon="10.4002147"><ele>8.0</ele><time>2026-04-05T16:52:37.989Z</time></trkpt><trkpt lat="43.8018771" lon="10.4001494"><ele>8.0</ele><time>2026-04-05T16:52:45.988Z</time></trkpt><trkpt lat="43.8019251" lon="10.4000764"><ele>8.0</ele><time>2026-04-05T16:52:53.992Z</time></trkpt><trkpt lat="43.8019735" lon="10.4000121"><ele>7.999999999999999</ele><time>2026-04-05T16:53:02.985Z</time></trkpt><trkpt lat="43.8020275" lon="10.3999449"><ele>8.0</ele><time>2026-04-05T16:53:10.988Z</time></trkpt><trkpt lat="43.8020803" lon="10.399884"><ele>8.0</ele><time>2026-04-05T16:53:17.985Z</time></trkpt><trkpt lat="43.8021337" lon="10.3998348"><ele>7.999999999999999</ele><time>2026-04-05T16:53:25.988Z</time></trkpt><trkpt lat="43.8021852" lon="10.3997805"><ele>8.0</ele><time>2026-04-05T16:53:33.989Z</time></trkpt><trkpt lat="43.8022251" lon="10.3997073"><ele>8.0</ele><time>2026-04-05T16:53:41.989Z</time></trkpt><trkpt lat="43.8022764" lon="10.3996521"><ele>8.0</ele><time>2026-04-05T16:53:49.987Z</time></trkpt><trkpt lat="43.8023401" lon="10.3996149"><ele>7.999999999999999</ele><time>2026-04-05T16:53:54.988Z</time></trkpt><trkpt lat="43.8024055" lon="10.3995779"><ele>8.0</ele><time>2026-04-05T16:54:01.988Z</time></trkpt><trkpt lat="43.8024672" lon="10.3995468"><ele>8.0</ele><time>2026-04-05T16:54:10.989Z</time></trkpt><trkpt lat="43.8025287" lon="10.3995249"><ele>7.999999999999999</ele><time>2026-04-05T16:54:18.985Z</time></trkpt><trkpt lat="43.8025989" lon="10.3994938"><ele>8.0</ele><time>2026-04-05T16:54:26.988Z</time></trkpt><trkpt lat="43.8026695" lon="10.3994757"><ele>8.0</ele><time>2026-04-05T16:54:34.988Z</time></trkpt><trkpt lat="43.8027331" lon="10.3994713"><ele>7.857142857142857</ele><time>2026-04-05T16:54:41.987Z</time></trkpt><trkpt lat="43.802801" lon="10.3994577"><ele>7.7142857142857135</ele><time>2026-04-05T16:54:48.988Z</time></trkpt><trkpt lat="43.8028633" lon="10.3994442"><ele>7.571428571428571</ele><time>2026-04-05T16:55:00.989Z</time></trkpt><trkpt lat="43.8029305" lon="10.3994351"><ele>7.428571428571429</ele><time>2026-04-05T16:55:06.985Z</time></trkpt><trkpt lat="43.8029954" lon="10.3994284"><ele>7.285714285714286</ele><time>2026-04-05T16:55:26.988Z</time></trkpt><trkpt lat="43.8030679" lon="10.3994293"><ele>7.142857142857142</ele><time>2026-04-05T16:55:34.989Z</time></trkpt><trkpt lat="43.8031355" lon="10.3994496"><ele>7.0</ele><time>2026-04-05T16:55:40.989Z</time></trkpt><trkpt lat="43.8032052" lon="10.3994572"><ele>7.0</ele><time>2026-04-05T16:55:48.985Z</time></trkpt><trkpt lat="43.8032698" lon="10.3994853"><ele>7.0</ele><time>2026-04-05T16:55:54.987Z</time></trkpt><trkpt lat="43.8033214" lon="10.3995426"><ele>7.0</ele><time>2026-04-05T16:56:01.989Z</time></trkpt><trkpt lat="43.8033928" lon="10.3995649"><ele>7.0</ele><time>2026-04-05T16:56:08.987Z</time></trkpt><trkpt lat="43.8034542" lon="10.3995858"><ele>7.0</ele><time>2026-04-05T16:56:15.988Z</time></trkpt><trkpt lat="43.803509" lon="10.3996393"><ele>7.0</ele><time>2026-04-05T16:56:24.988Z</time></trkpt><trkpt lat="43.8035691" lon="10.3996801"><ele>7.0</ele><time>2026-04-05T16:56:31.988Z</time></trkpt><trkpt lat="43.8036266" lon="10.3997299"><ele>7.285714285714286</ele><time>2026-04-05T16:56:41.003Z</time></trkpt><trkpt lat="43.8036812" lon="10.3997917"><ele>7.571428571428571</ele><time>2026-04-05T16:56:47.996Z</time></trkpt><trkpt lat="43.8037321" lon="10.3998528"><ele>7.857142857142858</ele><time>2026-04-05T16:56:53.996Z</time></trkpt><trkpt lat="43.8037862" lon="10.3999106"><ele>8.142857142857142</ele><time>2026-04-05T16:57:01.002Z</time></trkpt><trkpt lat="43.8038335" lon="10.3999784"><ele>8.428571428571429</ele><time>2026-04-05T16:57:08.001Z</time></trkpt><trkpt lat="43.8038784" lon="10.4000546"><ele>8.714285714285715</ele><time>2026-04-05T16:57:15.998Z</time></trkpt><trkpt lat="43.8039199" lon="10.4001303"><ele>9.0</ele><time>2026-04-05T16:57:23.001Z</time></trkpt><trkpt lat="43.8039642" lon="10.4001951"><ele>9.000000000000002</ele><time>2026-04-05T16:57:31.001Z</time></trkpt><trkpt lat="43.8040062" lon="10.4002676"><ele>9.0</ele><time>2026-04-05T16:57:37.999Z</time></trkpt><trkpt lat="43.8040464" lon="10.4003455"><ele>9.0</ele><time>2026-04-05T16:57:45.003Z</time></trkpt><trkpt lat="43.8040921" lon="10.4004207"><ele>9.0</ele><time>2026-04-05T16:57:52.986Z</time></trkpt><trkpt lat="43.8041365" lon="10.4004934"><ele>9.0</ele><time>2026-04-05T16:58:00.988Z</time></trkpt><trkpt lat="43.8041817" lon="10.4006044"><ele>9.000000000000002</ele><time>2026-04-05T16:58:17.988Z</time></trkpt><trkpt lat="43.8042209" lon="10.4006847"><ele>9.0</ele><time>2026-04-05T16:58:23.985Z</time></trkpt><trkpt lat="43.8042694" lon="10.4007479"><ele>8.857142857142858</ele><time>2026-04-05T16:58:29.989Z</time></trkpt><trkpt lat="43.8043016" lon="10.4008298"><ele>8.714285714285715</ele><time>2026-04-05T16:58:37.988Z</time></trkpt><trkpt lat="43.8043384" lon="10.4009042"><ele>8.571428571428571</ele><time>2026-04-05T16:58:44.988Z</time></trkpt><trkpt lat="43.8043751" lon="10.4009837"><ele>8.428571428571429</ele><time>2026-04-05T16:58:52.986Z</time></trkpt><trkpt lat="43.8044216" lon="10.4010473"><ele>8.285714285714285</ele><time>2026-04-05T16:58:58.988Z</time></trkpt><trkpt lat="43.8044677" lon="10.4011216"><ele>8.142857142857142</ele><time>2026-04-05T16:59:05.986Z</time></trkpt><trkpt lat="43.8045144" lon="10.4011968"><ele>8.0</ele><time>2026-04-05T16:59:12.989Z</time></trkpt><trkpt lat="43.8045502" lon="10.4012697"><ele>8.0</ele><time>2026-04-05T16:59:19.987Z</time></trkpt><trkpt lat="43.8045932" lon="10.401338"><ele>7.999999999999999</ele><time>2026-04-05T16:59:25.989Z</time></trkpt><trkpt lat="43.8046407" lon="10.4013974"><ele>8.0</ele><time>2026-04-05T16:59:33.99Z</time></trkpt><trkpt lat="43.8046791" lon="10.4014832"><ele>8.0</ele><time>2026-04-05T16:59:44.989Z</time></trkpt><trkpt lat="43.804722" lon="10.4015507"><ele>7.999999999999999</ele><time>2026-04-05T16:59:51.986Z</time></trkpt><trkpt lat="43.8047749" lon="10.4016192"><ele>8.0</ele><time>2026-04-05T17:00:16.99Z</time></trkpt><trkpt lat="43.8048107" lon="10.401705"><ele>8.0</ele><time>2026-04-05T17:00:28.985Z</time></trkpt><trkpt lat="43.8048409" lon="10.4017929"><ele>8.0</ele><time>2026-04-05T17:00:33.988Z</time></trkpt><trkpt lat="43.8048691" lon="10.4018787"><ele>7.999999999999999</ele><time>2026-04-05T17:00:39.99Z</time></trkpt><trkpt lat="43.804914" lon="10.4019418"><ele>8.0</ele><time>2026-04-05T17:00:45.986Z</time></trkpt><trkpt lat="43.8049548" lon="10.4020122"><ele>8.0</ele><time>2026-04-05T17:00:50.987Z</time></trkpt><trkpt lat="43.8050059" lon="10.4020786"><ele>7.999999999999999</ele><time>2026-04-05T17:00:57.988Z</time></trkpt><trkpt lat="43.8050708" lon="10.4021102"><ele>8.0</ele><time>2026-04-05T17:01:09.984Z</time></trkpt><trkpt lat="43.8051354" lon="10.4021149"><ele>8.0</ele><time>2026-04-05T17:01:16.988Z</time></trkpt><trkpt lat="43.8052026" lon="10.4020858"><ele>8.0</ele><time>2026-04-05T17:01:23.987Z</time></trkpt><trkpt lat="43.8052678" lon="10.4021089"><ele>7.999999999999999</ele><time>2026-04-05T17:01:31.986Z</time></trkpt><trkpt lat="43.8053079" lon="10.4021772"><ele>8.0</ele><time>2026-04-05T17:01:40.988Z</time></trkpt><trkpt lat="43.8053393" lon="10.402256"><ele>8.0</ele><time>2026-04-05T17:01:47.985Z</time></trkpt><trkpt lat="43.805407" lon="10.4022951"><ele>7.999999999999999</ele><time>2026-04-05T17:01:54.987Z</time></trkpt><trkpt lat="43.8054641" lon="10.4022516"><ele>8.0</ele><time>2026-04-05T17:02:02.986Z</time></trkpt><trkpt lat="43.8055167" lon="10.402178"><ele>8.0</ele><time>2026-04-05T17:02:19.987Z</time></trkpt><trkpt lat="43.8055744" lon="10.4021359"><ele>8.0</ele><time>2026-04-05T17:02:39.987Z</time></trkpt><trkpt lat="43.8056091" lon="10.4020587"><ele>7.999999999999999</ele><time>2026-04-05T17:02:48.986Z</time></trkpt><trkpt lat="43.8056155" lon="10.4019698"><ele>8.0</ele><time>2026-04-05T17:02:58.987Z</time></trkpt><trkpt lat="43.8056508" lon="10.4018888"><ele>8.0</ele><time>2026-04-05T17:03:06.985Z</time></trkpt><trkpt lat="43.8056157" lon="10.4018077"><ele>7.999999999999999</ele><time>2026-04-05T17:03:26.987Z</time></trkpt><trkpt lat="43.8055247" lon="10.4018475"><ele>8.0</ele><time>2026-04-05T17:13:36.986Z</time></trkpt><trkpt lat="43.8055759" lon="10.4019192"><ele>8.0</ele><time>2026-04-05T17:14:13.987Z</time></trkpt><trkpt lat="43.8056605" lon="10.4022612"><ele>8.0</ele><time>2026-04-05T17:18:23.987Z</time></trkpt><trkpt lat="43.8056189" lon="10.4021883"><ele>7.999999999999999</ele><time>2026-04-05T17:18:26.986Z</time></trkpt><trkpt lat="43.8055838" lon="10.4020986"><ele>8.0</ele><time>2026-04-05T17:18:31.986Z</time></trkpt><trkpt lat="43.8055119" lon="10.402196"><ele>8.0</ele><time>2026-04-05T17:20:18.987Z</time></trkpt><trkpt lat="43.8054531" lon="10.4022347"><ele>7.999999999999999</ele><time>2026-04-05T17:20:29.986Z</time></trkpt><trkpt lat="43.8053999" lon="10.4022822"><ele>8.0</ele><time>2026-04-05T17:20:36.987Z</time></trkpt><trkpt lat="43.8053412" lon="10.402314"><ele>8.0</ele><time>2026-04-05T17:20:42.988Z</time></trkpt><trkpt lat="43.805314" lon="10.4021873"><ele>8.0</ele><time>2026-04-05T17:21:02.988Z</time></trkpt><trkpt lat="43.8052822" lon="10.4021078"><ele>7.999999999999999</ele><time>2026-04-05T17:21:11.989Z</time></trkpt><trkpt lat="43.8052397" lon="10.4020405"><ele>8.0</ele><time>2026-04-05T17:21:19.991Z</time></trkpt><trkpt lat="43.8051664" lon="10.4020658"><ele>8.0</ele><time>2026-04-05T17:21:27.002Z</time></trkpt><trkpt lat="43.8050972" lon="10.4020795"><ele>7.999999999999999</ele><time>2026-04-05T17:21:32.999Z</time></trkpt><trkpt lat="43.8050257" lon="10.4020796"><ele>8.0</ele><time>2026-04-05T17:21:40.988Z</time></trkpt><trkpt lat="43.8050227" lon="10.4021762"><ele>8.0</ele><time>2026-04-05T17:21:52.988Z</time></trkpt><trkpt lat="43.8050647" lon="10.4022469"><ele>8.0</ele><time>2026-04-05T17:22:00.988Z</time></trkpt><trkpt lat="43.8051223" lon="10.4022936"><ele>7.999999999999999</ele><time>2026-04-05T17:22:11.989Z</time></trkpt><trkpt lat="43.8051631" lon="10.4023776"><ele>8.0</ele><time>2026-04-05T17:22:19.985Z</time></trkpt><trkpt lat="43.8051943" lon="10.4024682"><ele>8.0</ele><time>2026-04-05T17:22:26.989Z</time></trkpt><trkpt lat="43.805248" lon="10.4025449"><ele>7.999999999999999</ele><time>2026-04-05T17:22:42.99Z</time></trkpt><trkpt lat="43.8052968" lon="10.4026052"><ele>8.0</ele><time>2026-04-05T17:22:51.986Z</time></trkpt><trkpt lat="43.8053394" lon="10.4026779"><ele>8.0</ele><time>2026-04-05T17:22:57.988Z</time></trkpt><trkpt lat="43.8053912" lon="10.4027295"><ele>8.0</ele><time>2026-04-05T17:23:15.001Z</time></trkpt><trkpt lat="43.8054415" lon="10.4027829"><ele>7.999999999999999</ele><time>2026-04-05T17:23:23.999Z</time></trkpt><trkpt lat="43.8054735" lon="10.4028668"><ele>8.0</ele><time>2026-04-05T17:23:31.001Z</time></trkpt><trkpt lat="43.8055098" lon="10.4029405"><ele>8.0</ele><time>2026-04-05T17:23:39.995Z</time></trkpt><trkpt lat="43.8055521" lon="10.4030221"><ele>7.999999999999999</ele><time>2026-04-05T17:25:36.997Z</time></trkpt><trkpt lat="43.8055697" lon="10.4031126"><ele>8.0</ele><time>2026-04-05T17:25:45.001Z</time></trkpt><trkpt lat="43.8056207" lon="10.4031671"><ele>8.0</ele><time>2026-04-05T17:25:51.997Z</time></trkpt><trkpt lat="43.8056511" lon="10.4032494"><ele>8.285714285714285</ele><time>2026-04-05T17:26:02.989Z</time></trkpt><trkpt lat="43.8056902" lon="10.403318"><ele>8.571428571428571</ele><time>2026-04-05T17:26:09.99Z</time></trkpt><trkpt lat="43.8057394" lon="10.4033886"><ele>8.857142857142858</ele><time>2026-04-05T17:26:19.001Z</time></trkpt><trkpt lat="43.8057822" lon="10.4034643"><ele>9.142857142857142</ele><time>2026-04-05T17:26:26Z</time></trkpt><trkpt lat="43.8058214" lon="10.4035468"><ele>9.428571428571429</ele><time>2026-04-05T17:26:32.998Z</time></trkpt><trkpt lat="43.8058596" lon="10.4036217"><ele>9.714285714285714</ele><time>2026-04-05T17:26:39.997Z</time></trkpt><trkpt lat="43.8059012" lon="10.4036912"><ele>10.0</ele><time>2026-04-05T17:26:46.996Z</time></trkpt><trkpt lat="43.8059459" lon="10.4037716"><ele>9.857142857142858</ele><time>2026-04-05T17:26:54.001Z</time></trkpt><trkpt lat="43.8059943" lon="10.4038373"><ele>9.714285714285715</ele><time>2026-04-05T17:27:00.997Z</time></trkpt><trkpt lat="43.8060288" lon="10.403915"><ele>9.571428571428573</ele><time>2026-04-05T17:27:06.996Z</time></trkpt><trkpt lat="43.8060712" lon="10.4039923"><ele>9.428571428571429</ele><time>2026-04-05T17:27:14.001Z</time></trkpt><trkpt lat="43.8061115" lon="10.4040723"><ele>9.285714285714286</ele><time>2026-04-05T17:27:23Z</time></trkpt><trkpt lat="43.8061551" lon="10.4041392"><ele>9.142857142857144</ele><time>2026-04-05T17:27:28.995Z</time></trkpt><trkpt lat="43.8062101" lon="10.404203"><ele>9.0</ele><time>2026-04-05T17:27:37.988Z</time></trkpt><trkpt lat="43.8062456" lon="10.4042799"><ele>9.000000000000002</ele><time>2026-04-05T17:27:45.987Z</time></trkpt><trkpt lat="43.8062974" lon="10.4043444"><ele>9.0</ele><time>2026-04-05T17:27:52.987Z</time></trkpt><trkpt lat="43.806337" lon="10.4044198"><ele>9.0</ele><time>2026-04-05T17:28:01.989Z</time></trkpt><trkpt lat="43.8063736" lon="10.4045053"><ele>9.0</ele><time>2026-04-05T17:28:09.989Z</time></trkpt><trkpt lat="43.8064185" lon="10.404576"><ele>9.0</ele><time>2026-04-05T17:28:17.989Z</time></trkpt><trkpt lat="43.8064514" lon="10.4046591"><ele>9.000000000000002</ele><time>2026-04-05T17:28:24.988Z</time></trkpt><trkpt lat="43.8064897" lon="10.4047306"><ele>9.0</ele><time>2026-04-05T17:28:30.989Z</time></trkpt><trkpt lat="43.8065327" lon="10.4048001"><ele>9.142857142857144</ele><time>2026-04-05T17:28:39.988Z</time></trkpt><trkpt lat="43.8065569" lon="10.4048814"><ele>9.285714285714286</ele><time>2026-04-05T17:28:47.988Z</time></trkpt><trkpt lat="43.8065997" lon="10.4049469"><ele>9.428571428571429</ele><time>2026-04-05T17:28:56.986Z</time></trkpt><trkpt lat="43.8066398" lon="10.4050218"><ele>9.571428571428573</ele><time>2026-04-05T17:29:02.99Z</time></trkpt><trkpt lat="43.8066928" lon="10.4050845"><ele>9.714285714285715</ele><time>2026-04-05T17:29:09.99Z</time></trkpt><trkpt lat="43.8067353" lon="10.4051558"><ele>9.857142857142858</ele><time>2026-04-05T17:29:16.989Z</time></trkpt><trkpt lat="43.806772" lon="10.4052374"><ele>10.0</ele><time>2026-04-05T17:29:23.987Z</time></trkpt><trkpt lat="43.8068158" lon="10.4053109"><ele>9.714285714285714</ele><time>2026-04-05T17:29:30.988Z</time></trkpt><trkpt lat="43.8068576" lon="10.4053906"><ele>9.428571428571429</ele><time>2026-04-05T17:29:37.988Z</time></trkpt><trkpt lat="43.8068951" lon="10.4054724"><ele>9.142857142857142</ele><time>2026-04-05T17:29:44.989Z</time></trkpt><trkpt lat="43.8069384" lon="10.4055458"><ele>8.857142857142858</ele><time>2026-04-05T17:29:54.991Z</time></trkpt><trkpt lat="43.8069804" lon="10.4056245"><ele>8.571428571428571</ele><time>2026-04-05T17:30:01.986Z</time></trkpt><trkpt lat="43.8070256" lon="10.4056949"><ele>8.285714285714285</ele><time>2026-04-05T17:30:07.987Z</time></trkpt><trkpt lat="43.8070812" lon="10.4057578"><ele>8.0</ele><time>2026-04-05T17:30:14.99Z</time></trkpt><trkpt lat="43.8071161" lon="10.4058435"><ele>8.0</ele><time>2026-04-05T17:30:34.985Z</time></trkpt><trkpt lat="43.8071595" lon="10.405915"><ele>7.999999999999999</ele><time>2026-04-05T17:30:41.986Z</time></trkpt><trkpt lat="43.8071995" lon="10.4059858"><ele>8.0</ele><time>2026-04-05T17:30:49.987Z</time></trkpt><trkpt lat="43.8072563" lon="10.4060311"><ele>8.0</ele><time>2026-04-05T17:30:56.988Z</time></trkpt><trkpt lat="43.8073081" lon="10.4060881"><ele>7.999999999999999</ele><time>2026-04-05T17:31:04.988Z</time></trkpt><trkpt lat="43.8073372" lon="10.4061749"><ele>8.0</ele><time>2026-04-05T17:31:10.987Z</time></trkpt><trkpt lat="43.8073768" lon="10.4062584"><ele>8.0</ele><time>2026-04-05T17:31:17.987Z</time></trkpt><trkpt lat="43.8074233" lon="10.4063308"><ele>8.0</ele><time>2026-04-05T17:31:23.986Z</time></trkpt><trkpt lat="43.8074637" lon="10.406398"><ele>7.999999999999999</ele><time>2026-04-05T17:31:31.001Z</time></trkpt><trkpt lat="43.8074778" lon="10.4062938"><ele>8.0</ele><time>2026-04-05T17:31:43.999Z</time></trkpt><trkpt lat="43.807474" lon="10.4062036"><ele>8.0</ele><time>2026-04-05T17:31:46.997Z</time></trkpt><trkpt lat="43.8075004" lon="10.4062927"><ele>7.999999999999999</ele><time>2026-04-05T17:31:54.001Z</time></trkpt><trkpt lat="43.8075353" lon="10.4063891"><ele>8.0</ele><time>2026-04-05T17:31:59Z</time></trkpt><trkpt lat="43.8075912" lon="10.4064595"><ele>8.0</ele><time>2026-04-05T17:32:03.001Z</time></trkpt><trkpt lat="43.8076452" lon="10.4065242"><ele>8.0</ele><time>2026-04-05T17:32:06Z</time></trkpt><trkpt lat="43.8076851" lon="10.4066508"><ele>7.999999999999999</ele><time>2026-04-05T17:32:08.998Z</time></trkpt><trkpt lat="43.8077259" lon="10.4067272"><ele>8.0</ele><time>2026-04-05T17:32:10.998Z</time></trkpt><trkpt lat="43.8077758" lon="10.4067954"><ele>8.0</ele><time>2026-04-05T17:32:16.994Z</time></trkpt><trkpt lat="43.8078157" lon="10.4068706"><ele>7.999999999999999</ele><time>2026-04-05T17:32:24.002Z</time></trkpt><trkpt lat="43.8078632" lon="10.4069383"><ele>8.0</ele><time>2026-04-05T17:32:31.995Z</time></trkpt><trkpt lat="43.8079205" lon="10.406987"><ele>8.0</ele><time>2026-04-05T17:32:39.001Z</time></trkpt><trkpt lat="43.8079683" lon="10.4070611"><ele>8.0</ele><time>2026-04-05T17:32:46.002Z</time></trkpt><trkpt lat="43.8080198" lon="10.4071258"><ele>7.999999999999999</ele><time>2026-04-05T17:32:52.996Z</time></trkpt><trkpt lat="43.808072" lon="10.407193"><ele>8.0</ele><time>2026-04-05T17:33:00.999Z</time></trkpt><trkpt lat="43.8081244" lon="10.4072601"><ele>8.0</ele><time>2026-04-05T17:33:09.001Z</time></trkpt><trkpt lat="43.8081772" lon="10.4073142"><ele>7.999999999999999</ele><time>2026-04-05T17:33:16.001Z</time></trkpt><trkpt lat="43.8082329" lon="10.4073644"><ele>8.0</ele><time>2026-04-05T17:33:22.999Z</time></trkpt><trkpt lat="43.808285" lon="10.4074244"><ele>8.0</ele><time>2026-04-05T17:33:31.003Z</time></trkpt><trkpt lat="43.808346" lon="10.4074727"><ele>8.0</ele><time>2026-04-05T17:33:38.999Z</time></trkpt><trkpt lat="43.8083969" lon="10.407532"><ele>7.999999999999999</ele><time>2026-04-05T17:33:46.001Z</time></trkpt><trkpt lat="43.8084457" lon="10.4075898"><ele>8.0</ele><time>2026-04-05T17:33:53Z</time></trkpt><trkpt lat="43.8085092" lon="10.4076403"><ele>8.0</ele><time>2026-04-05T17:34:00.001Z</time></trkpt><trkpt lat="43.808569" lon="10.4076947"><ele>7.999999999999999</ele><time>2026-04-05T17:34:08.001Z</time></trkpt><trkpt lat="43.8086285" lon="10.4077476"><ele>8.0</ele><time>2026-04-05T17:34:15.996Z</time></trkpt><trkpt lat="43.8086878" lon="10.4077812"><ele>8.0</ele><time>2026-04-05T17:34:28.987Z</time></trkpt><trkpt lat="43.8087443" lon="10.4078242"><ele>8.142857142857142</ele><time>2026-04-05T17:34:36.987Z</time></trkpt><trkpt lat="43.8087933" lon="10.4078901"><ele>8.285714285714285</ele><time>2026-04-05T17:34:44.988Z</time></trkpt><trkpt lat="43.8088452" lon="10.4079406"><ele>8.428571428571429</ele><time>2026-04-05T17:34:53.987Z</time></trkpt><trkpt lat="43.8089096" lon="10.4079738"><ele>8.571428571428571</ele><time>2026-04-05T17:35:07.985Z</time></trkpt><trkpt lat="43.8089669" lon="10.4080301"><ele>8.714285714285715</ele><time>2026-04-05T17:35:15.988Z</time></trkpt><trkpt lat="43.8090238" lon="10.4080868"><ele>8.857142857142858</ele><time>2026-04-05T17:35:22.986Z</time></trkpt><trkpt lat="43.8090889" lon="10.4081186"><ele>9.0</ele><time>2026-04-05T17:35:33.987Z</time></trkpt><trkpt lat="43.8091398" lon="10.4081719"><ele>9.000000000000002</ele><time>2026-04-05T17:35:41.988Z</time></trkpt><trkpt lat="43.8091978" lon="10.408212"><ele>9.0</ele><time>2026-04-05T17:35:49.986Z</time></trkpt><trkpt lat="43.8092492" lon="10.4082657"><ele>9.0</ele><time>2026-04-05T17:35:56.988Z</time></trkpt><trkpt lat="43.8093121" lon="10.4083088"><ele>9.0</ele><time>2026-04-05T17:36:04.987Z</time></trkpt><trkpt lat="43.8093715" lon="10.4083443"><ele>9.0</ele><time>2026-04-05T17:36:12.991Z</time></trkpt><trkpt lat="43.8094306" lon="10.4083826"><ele>9.000000000000002</ele><time>2026-04-05T17:36:19.987Z</time></trkpt><trkpt lat="43.8094909" lon="10.4084304"><ele>9.0</ele><time>2026-04-05T17:36:27.987Z</time></trkpt><trkpt lat="43.8095501" lon="10.4084624"><ele>9.000000000000002</ele><time>2026-04-05T17:36:34.989Z</time></trkpt><trkpt lat="43.809605" lon="10.4085106"><ele>9.0</ele><time>2026-04-05T17:36:42.989Z</time></trkpt><trkpt lat="43.8097062" lon="10.4085644"><ele>9.0</ele><time>2026-04-05T17:37:27.986Z</time></trkpt><trkpt lat="43.8097626" lon="10.4086043"><ele>9.0</ele><time>2026-04-05T17:37:33.987Z</time></trkpt><trkpt lat="43.8098258" lon="10.4086378"><ele>9.0</ele><time>2026-04-05T17:37:40.988Z</time></trkpt><trkpt lat="43.8098825" lon="10.408697"><ele>9.000000000000002</ele><time>2026-04-05T17:37:47.987Z</time></trkpt><trkpt lat="43.809948" lon="10.4087394"><ele>9.0</ele><time>2026-04-05T17:37:54.987Z</time></trkpt><trkpt lat="43.8100123" lon="10.4087814"><ele>9.000000000000002</ele><time>2026-04-05T17:38:10.988Z</time></trkpt><trkpt lat="43.8100736" lon="10.4088214"><ele>9.0</ele><time>2026-04-05T17:38:16.987Z</time></trkpt><trkpt lat="43.8101283" lon="10.4088656"><ele>9.0</ele><time>2026-04-05T17:38:23.986Z</time></trkpt><trkpt lat="43.8101911" lon="10.408907"><ele>9.0</ele><time>2026-04-05T17:38:30.987Z</time></trkpt><trkpt lat="43.8102546" lon="10.4089413"><ele>9.0</ele><time>2026-04-05T17:38:37.988Z</time></trkpt><trkpt lat="43.8103169" lon="10.4089878"><ele>9.000000000000002</ele><time>2026-04-05T17:38:44.992Z</time></trkpt><trkpt lat="43.8103748" lon="10.4090314"><ele>9.0</ele><time>2026-04-05T17:38:51.987Z</time></trkpt><trkpt lat="43.8104324" lon="10.4090757"><ele>8.714285714285715</ele><time>2026-04-05T17:39:00.985Z</time></trkpt><trkpt lat="43.8105015" lon="10.4091019"><ele>8.428571428571429</ele><time>2026-04-05T17:39:06.988Z</time></trkpt><trkpt lat="43.8105609" lon="10.4091444"><ele>8.142857142857142</ele><time>2026-04-05T17:39:12.987Z</time></trkpt><trkpt lat="43.8106089" lon="10.4092055"><ele>7.857142857142858</ele><time>2026-04-05T17:39:21.987Z</time></trkpt><trkpt lat="43.8106745" lon="10.4092381"><ele>7.571428571428571</ele><time>2026-04-05T17:39:28.986Z</time></trkpt><trkpt lat="43.8107385" lon="10.4092695"><ele>7.285714285714286</ele><time>2026-04-05T17:39:36.987Z</time></trkpt><trkpt lat="43.8107983" lon="10.4093102"><ele>7.0</ele><time>2026-04-05T17:39:43.987Z</time></trkpt><trkpt lat="43.8108524" lon="10.4093609"><ele>7.0</ele><time>2026-04-05T17:39:50.986Z</time></trkpt><trkpt lat="43.8109095" lon="10.4094012"><ele>7.0</ele><time>2026-04-05T17:39:57.987Z</time></trkpt><trkpt lat="43.8109759" lon="10.4094356"><ele>7.0</ele><time>2026-04-05T17:40:04.988Z</time></trkpt><trkpt lat="43.8110408" lon="10.4094665"><ele>7.0</ele><time>2026-04-05T17:40:11.986Z</time></trkpt><trkpt lat="43.8111009" lon="10.4095034"><ele>7.0</ele><time>2026-04-05T17:40:20.986Z</time></trkpt><trkpt lat="43.8111567" lon="10.4095606"><ele>7.0</ele><time>2026-04-05T17:40:28.989Z</time></trkpt><trkpt lat="43.8112158" lon="10.4096002"><ele>7.0</ele><time>2026-04-05T17:40:34.989Z</time></trkpt><trkpt lat="43.8112693" lon="10.4096469"><ele>7.285714285714286</ele><time>2026-04-05T17:40:41.986Z</time></trkpt><trkpt lat="43.8113279" lon="10.4096935"><ele>7.571428571428571</ele><time>2026-04-05T17:40:48.987Z</time></trkpt><trkpt lat="43.8113879" lon="10.4097336"><ele>7.857142857142858</ele><time>2026-04-05T17:40:55.987Z</time></trkpt><trkpt lat="43.8114491" lon="10.4097714"><ele>8.142857142857142</ele><time>2026-04-05T17:41:03.989Z</time></trkpt><trkpt lat="43.8115127" lon="10.4098147"><ele>8.428571428571429</ele><time>2026-04-05T17:41:10.987Z</time></trkpt><trkpt lat="43.8115759" lon="10.4098514"><ele>8.714285714285715</ele><time>2026-04-05T17:41:17.986Z</time></trkpt><trkpt lat="43.8116358" lon="10.4098956"><ele>9.0</ele><time>2026-04-05T17:41:25.988Z</time></trkpt><trkpt lat="43.8116962" lon="10.4099398"><ele>9.000000000000002</ele><time>2026-04-05T17:41:32.986Z</time></trkpt><trkpt lat="43.8117654" lon="10.4099694"><ele>9.0</ele><time>2026-04-05T17:41:40.987Z</time></trkpt><trkpt lat="43.8118236" lon="10.4100029"><ele>9.0</ele><time>2026-04-05T17:41:46.989Z</time></trkpt><trkpt lat="43.8118859" lon="10.4100496"><ele>9.0</ele><time>2026-04-05T17:41:55.988Z</time></trkpt><trkpt lat="43.8119382" lon="10.4101007"><ele>9.0</ele><time>2026-04-05T17:42:04.988Z</time></trkpt><trkpt lat="43.8120023" lon="10.4101447"><ele>9.000000000000002</ele><time>2026-04-05T17:42:12.988Z</time></trkpt><trkpt lat="43.8120624" lon="10.4101932"><ele>9.0</ele><time>2026-04-05T17:42:20.988Z</time></trkpt><trkpt lat="43.8121323" lon="10.4102289"><ele>8.857142857142858</ele><time>2026-04-05T17:42:26.989Z</time></trkpt><trkpt lat="43.8121895" lon="10.4102807"><ele>8.714285714285715</ele><time>2026-04-05T17:42:33.988Z</time></trkpt><trkpt lat="43.8122488" lon="10.4103166"><ele>8.571428571428571</ele><time>2026-04-05T17:42:40.989Z</time></trkpt><trkpt lat="43.8123092" lon="10.4103449"><ele>8.428571428571429</ele><time>2026-04-05T17:42:45.989Z</time></trkpt><trkpt lat="43.8123653" lon="10.4103985"><ele>8.285714285714285</ele><time>2026-04-05T17:42:51.987Z</time></trkpt><trkpt lat="43.8124267" lon="10.4104414"><ele>8.142857142857142</ele><time>2026-04-05T17:42:57.988Z</time></trkpt><trkpt lat="43.8124846" lon="10.4104856"><ele>8.0</ele><time>2026-04-05T17:43:05.988Z</time></trkpt><trkpt lat="43.8125373" lon="10.4105348"><ele>8.0</ele><time>2026-04-05T17:43:13.989Z</time></trkpt><trkpt lat="43.8125929" lon="10.4105833"><ele>7.999999999999999</ele><time>2026-04-05T17:43:19.986Z</time></trkpt><trkpt lat="43.8126449" lon="10.4106409"><ele>8.0</ele><time>2026-04-05T17:43:27.989Z</time></trkpt><trkpt lat="43.8126731" lon="10.4107224"><ele>8.0</ele><time>2026-04-05T17:43:46.99Z</time></trkpt><trkpt lat="43.8126022" lon="10.4107125"><ele>7.999999999999999</ele><time>2026-04-05T17:43:53.989Z</time></trkpt><trkpt lat="43.812536" lon="10.410663"><ele>8.0</ele><time>2026-04-05T17:44:00.989Z</time></trkpt><trkpt lat="43.8124758" lon="10.4106339"><ele>8.0</ele><time>2026-04-05T17:44:07.989Z</time></trkpt><trkpt lat="43.8124245" lon="10.4105763"><ele>10.0</ele><time>2026-04-05T17:44:14.989Z</time></trkpt><trkpt lat="43.8123523" lon="10.4105501"><ele>10.0</ele><time>2026-04-05T17:44:21.986Z</time></trkpt><trkpt lat="43.8122912" lon="10.4105035"><ele>10.0</ele><time>2026-04-05T17:44:27.989Z</time></trkpt><trkpt lat="43.8122259" lon="10.4104734"><ele>8.0</ele><time>2026-04-05T17:44:34.986Z</time></trkpt><trkpt lat="43.8121578" lon="10.4104756"><ele>8.0</ele><time>2026-04-05T17:44:41.988Z</time></trkpt><trkpt lat="43.8121115" lon="10.4105475"><ele>10.0</ele><time>2026-04-05T17:44:47.987Z</time></trkpt></trkseg></trk></gpx>